sensor_id;sensor_type;location;lat;lon;timestamp;temperature;humidity
67942;SHT31;54731;42.600;23.476;2023-02-19T00:01:58;6.40;61.64
67942;SHT31;54731;42.600;23.476;2023-02-19T00:04:23;6.22;62.34
67942;SHT31;54731;42.600;23.476;2023-02-19T00:06:48;6.18;62.59
67942;SHT31;54731;42.600;23.476;2023-02-19T00:09:16;6.17;62.45
67942;SHT31;54731;42.600;23.476;2023-02-19T00:11:42;6.14;63.12
67942;SHT31;54731;42.600;23.476;2023-02-19T00:14:08;6.11;62.59
67942;SHT31;54731;42.600;23.476;2023-02-19T00:16:36;6.18;62.23
67942;SHT31;54731;42.600;23.476;2023-02-19T00:19:04;6.24;61.89
67942;SHT31;54731;42.600;23.476;2023-02-19T00:21:30;6.35;61.64
67942;SHT31;54731;42.600;23.476;2023-02-19T00:23:58;6.30;62.05
67942;SHT31;54731;42.600;23.476;2023-02-19T00:26:24;6.21;62.85
67942;SHT31;54731;42.600;23.476;2023-02-19T00:28:50;6.27;62.46
67942;SHT31;54731;42.600;23.476;2023-02-19T00:31:27;6.14;63.09
67942;SHT31;54731;42.600;23.476;2023-02-19T00:33:55;6.13;63.24
67942;SHT31;54731;42.600;23.476;2023-02-19T00:36:22;6.13;62.88
67942;SHT31;54731;42.600;23.476;2023-02-19T00:38:48;5.91;64.70
67942;SHT31;54731;42.600;23.476;2023-02-19T00:41:15;5.90;63.78
67942;SHT31;54731;42.600;23.476;2023-02-19T00:43:40;5.97;63.51
67942;SHT31;54731;42.600;23.476;2023-02-19T00:46:06;5.89;64.58
67942;SHT31;54731;42.600;23.476;2023-02-19T00:48:31;5.90;64.21
67942;SHT31;54731;42.600;23.476;2023-02-19T00:50:56;5.86;64.38
67942;SHT31;54731;42.600;23.476;2023-02-19T00:53:21;5.79;65.10
67942;SHT31;54731;42.600;23.476;2023-02-19T00:55:47;5.77;65.21
67942;SHT31;54731;42.600;23.476;2023-02-19T00:58:12;5.76;64.88
67942;SHT31;54731;42.600;23.476;2023-02-19T01:00:37;5.55;65.80
67942;SHT31;54731;42.600;23.476;2023-02-19T01:03:03;5.43;65.87
67942;SHT31;54731;42.600;23.476;2023-02-19T01:05:28;5.53;65.16
67942;SHT31;54731;42.600;23.476;2023-02-19T01:07:53;5.49;65.48
67942;SHT31;54731;42.600;23.476;2023-02-19T01:10:18;5.42;66.25
67942;SHT31;54731;42.600;23.476;2023-02-19T01:12:44;5.34;66.10
67942;SHT31;54731;42.600;23.476;2023-02-19T01:15:09;5.26;66.56
67942;SHT31;54731;42.600;23.476;2023-02-19T01:17:34;5.16;66.91
67942;SHT31;54731;42.600;23.476;2023-02-19T01:20:00;5.28;66.07
67942;SHT31;54731;42.600;23.476;2023-02-19T01:22:25;5.28;66.60
67942;SHT31;54731;42.600;23.476;2023-02-19T01:24:50;5.43;66.37
67942;SHT31;54731;42.600;23.476;2023-02-19T01:27:16;5.38;66.35
67942;SHT31;54731;42.600;23.476;2023-02-19T01:29:41;5.39;66.42
67942;SHT31;54731;42.600;23.476;2023-02-19T01:32:07;5.35;66.41
67942;SHT31;54731;42.600;23.476;2023-02-19T01:34:32;5.39;66.03
67942;SHT31;54731;42.600;23.476;2023-02-19T01:36:57;5.38;66.55
67942;SHT31;54731;42.600;23.476;2023-02-19T01:39:23;5.46;66.08
67942;SHT31;54731;42.600;23.476;2023-02-19T01:41:48;5.42;66.34
67942;SHT31;54731;42.600;23.476;2023-02-19T01:46:40;5.46;65.79
67942;SHT31;54731;42.600;23.476;2023-02-19T01:49:23;5.47;65.03
67942;SHT31;54731;42.600;23.476;2023-02-19T01:51:55;5.40;66.05
67942;SHT31;54731;42.600;23.476;2023-02-19T01:54:24;5.36;66.33
67942;SHT31;54731;42.600;23.476;2023-02-19T01:56:51;5.32;66.29
67942;SHT31;54731;42.600;23.476;2023-02-19T01:59:17;5.24;66.53
67942;SHT31;54731;42.600;23.476;2023-02-19T02:01:43;5.22;66.39
67942;SHT31;54731;42.600;23.476;2023-02-19T02:04:10;5.21;66.80
67942;SHT31;54731;42.600;23.476;2023-02-19T02:09:15;5.35;65.02
67942;SHT31;54731;42.600;23.476;2023-02-19T02:11:47;5.38;64.52
67942;SHT31;54731;42.600;23.476;2023-02-19T02:14:13;5.46;64.04
67942;SHT31;54731;42.600;23.476;2023-02-19T02:22:15;5.55;64.00
67942;SHT31;54731;42.600;23.476;2023-02-19T02:27:43;5.63;64.20
67942;SHT31;54731;42.600;23.476;2023-02-19T02:30:15;5.63;63.98
67942;SHT31;54731;42.600;23.476;2023-02-19T02:35:43;5.63;64.53
67942;SHT31;54731;42.600;23.476;2023-02-19T02:38:11;5.63;64.29
67942;SHT31;54731;42.600;23.476;2023-02-19T02:40:41;5.59;64.48
67942;SHT31;54731;42.600;23.476;2023-02-19T02:43:07;5.66;64.51
67942;SHT31;54731;42.600;23.476;2023-02-19T02:45:32;5.56;64.88
67942;SHT31;54731;42.600;23.476;2023-02-19T02:47:58;5.52;65.41
67942;SHT31;54731;42.600;23.476;2023-02-19T02:50:26;5.50;65.71
67942;SHT31;54731;42.600;23.476;2023-02-19T02:52:59;5.43;65.77
67942;SHT31;54731;42.600;23.476;2023-02-19T02:55:30;5.39;65.95
67942;SHT31;54731;42.600;23.476;2023-02-19T02:57:58;5.38;66.01
67942;SHT31;54731;42.600;23.476;2023-02-19T03:00:25;5.32;66.37
67942;SHT31;54731;42.600;23.476;2023-02-19T03:02:52;5.32;66.45
67942;SHT31;54731;42.600;23.476;2023-02-19T03:05:21;5.26;66.73
67942;SHT31;54731;42.600;23.476;2023-02-19T03:07:59;5.38;66.06
67942;SHT31;54731;42.600;23.476;2023-02-19T03:10:33;5.42;65.64
67942;SHT31;54731;42.600;23.476;2023-02-19T03:13:01;5.49;65.31
67942;SHT31;54731;42.600;23.476;2023-02-19T03:15:32;5.40;65.66
67942;SHT31;54731;42.600;23.476;2023-02-19T03:18:02;5.35;65.48
67942;SHT31;54731;42.600;23.476;2023-02-19T03:20:29;5.42;65.02
67942;SHT31;54731;42.600;23.476;2023-02-19T03:22:58;5.45;65.55
67942;SHT31;54731;42.600;23.476;2023-02-19T03:25:27;5.52;65.04
67942;SHT31;54731;42.600;23.476;2023-02-19T03:27:56;5.55;64.69
67942;SHT31;54731;42.600;23.476;2023-02-19T03:30:27;5.60;64.36
67942;SHT31;54731;42.600;23.476;2023-02-19T03:32:59;5.63;64.61
67942;SHT31;54731;42.600;23.476;2023-02-19T03:35:30;5.71;63.51
67942;SHT31;54731;42.600;23.476;2023-02-19T03:38:03;5.76;63.66
67942;SHT31;54731;42.600;23.476;2023-02-19T03:40:34;5.77;63.62
67942;SHT31;54731;42.600;23.476;2023-02-19T03:43:17;5.85;62.58
67942;SHT31;54731;42.600;23.476;2023-02-19T03:51:46;6.06;61.95
67942;SHT31;54731;42.600;23.476;2023-02-19T03:54:22;6.11;62.98
67942;SHT31;54731;42.600;23.476;2023-02-19T03:57:10;6.04;62.89
67942;SHT31;54731;42.600;23.476;2023-02-19T04:02:12;5.94;62.92
67942;SHT31;54731;42.600;23.476;2023-02-19T04:05:24;5.90;63.44
67942;SHT31;54731;42.600;23.476;2023-02-19T04:07:53;5.91;62.90
67942;SHT31;54731;42.600;23.476;2023-02-19T04:10:20;5.96;62.40
67942;SHT31;54731;42.600;23.476;2023-02-19T04:12:52;5.98;62.20
67942;SHT31;54731;42.600;23.476;2023-02-19T04:15:23;5.97;62.41
67942;SHT31;54731;42.600;23.476;2023-02-19T04:17:59;5.83;64.30
67942;SHT31;54731;42.600;23.476;2023-02-19T04:20:28;5.77;64.74
67942;SHT31;54731;42.600;23.476;2023-02-19T04:22:56;5.83;63.53
67942;SHT31;54731;42.600;23.476;2023-02-19T04:25:23;5.81;63.42
67942;SHT31;54731;42.600;23.476;2023-02-19T04:27:50;5.85;62.90
67942;SHT31;54731;42.600;23.476;2023-02-19T04:30:15;5.85;63.54
67942;SHT31;54731;42.600;23.476;2023-02-19T04:32:41;5.81;64.12
67942;SHT31;54731;42.600;23.476;2023-02-19T04:35:06;5.85;63.16
67942;SHT31;54731;42.600;23.476;2023-02-19T04:37:31;5.79;64.40
67942;SHT31;54731;42.600;23.476;2023-02-19T04:39:57;5.74;64.54
67942;SHT31;54731;42.600;23.476;2023-02-19T04:42:22;5.73;64.71
67942;SHT31;54731;42.600;23.476;2023-02-19T04:44:47;5.62;65.04
67942;SHT31;54731;42.600;23.476;2023-02-19T04:47:13;5.69;63.66
67942;SHT31;54731;42.600;23.476;2023-02-19T04:49:38;5.86;62.35
67942;SHT31;54731;42.600;23.476;2023-02-19T04:52:03;6.04;61.78
67942;SHT31;54731;42.600;23.476;2023-02-19T04:54:29;6.30;61.05
67942;SHT31;54731;42.600;23.476;2023-02-19T04:56:54;6.55;60.06
67942;SHT31;54731;42.600;23.476;2023-02-19T04:59:19;6.78;59.61
67942;SHT31;54731;42.600;23.476;2023-02-19T05:01:45;7.02;58.84
67942;SHT31;54731;42.600;23.476;2023-02-19T05:04:10;7.36;57.99
67942;SHT31;54731;42.600;23.476;2023-02-19T05:06:35;7.56;57.06
67942;SHT31;54731;42.600;23.476;2023-02-19T05:09:01;7.77;56.45
67942;SHT31;54731;42.600;23.476;2023-02-19T05:11:26;7.98;55.92
67942;SHT31;54731;42.600;23.476;2023-02-19T05:13:51;8.01;55.79
67942;SHT31;54731;42.600;23.476;2023-02-19T05:16:18;8.02;56.01
67942;SHT31;54731;42.600;23.476;2023-02-19T05:18:44;8.12;55.81
67942;SHT31;54731;42.600;23.476;2023-02-19T05:21:10;8.22;55.67
67942;SHT31;54731;42.600;23.476;2023-02-19T05:23:36;8.28;55.72
67942;SHT31;54731;42.600;23.476;2023-02-19T05:26:11;8.46;55.32
67942;SHT31;54731;42.600;23.476;2023-02-19T05:28:37;8.50;55.47
67942;SHT31;54731;42.600;23.476;2023-02-19T05:31:05;8.64;54.94
67942;SHT31;54731;42.600;23.476;2023-02-19T05:33:31;8.67;55.11
67942;SHT31;54731;42.600;23.476;2023-02-19T05:35:56;8.66;55.35
67942;SHT31;54731;42.600;23.476;2023-02-19T05:38:22;8.66;55.49
67942;SHT31;54731;42.600;23.476;2023-02-19T05:40:48;8.72;55.42
67942;SHT31;54731;42.600;23.476;2023-02-19T05:43:14;8.72;55.52
67942;SHT31;54731;42.600;23.476;2023-02-19T05:45:40;8.77;55.27
67942;SHT31;54731;42.600;23.476;2023-02-19T05:48:06;8.90;55.08
67942;SHT31;54731;42.600;23.476;2023-02-19T05:50:33;8.90;55.20
67942;SHT31;54731;42.600;23.476;2023-02-19T05:53:00;8.84;55.49
67942;SHT31;54731;42.600;23.476;2023-02-19T05:55:25;8.93;55.76
67942;SHT31;54731;42.600;23.476;2023-02-19T05:57:50;9.04;55.65
67942;SHT31;54731;42.600;23.476;2023-02-19T06:00:17;9.17;55.01
67942;SHT31;54731;42.600;23.476;2023-02-19T06:02:43;9.10;54.95
67942;SHT31;54731;42.600;23.476;2023-02-19T06:05:09;9.07;54.84
67942;SHT31;54731;42.600;23.476;2023-02-19T06:07:34;8.94;55.49
67942;SHT31;54731;42.600;23.476;2023-02-19T06:10:00;8.94;55.54
67942;SHT31;54731;42.600;23.476;2023-02-19T06:12:25;8.87;55.83
67942;SHT31;54731;42.600;23.476;2023-02-19T06:14:51;8.86;55.69
67942;SHT31;54731;42.600;23.476;2023-02-19T06:17:16;8.88;55.91
67942;SHT31;54731;42.600;23.476;2023-02-19T06:19:41;8.99;55.42
67942;SHT31;54731;42.600;23.476;2023-02-19T06:22:07;8.97;55.54
67942;SHT31;54731;42.600;23.476;2023-02-19T06:24:33;9.01;55.44
67942;SHT31;54731;42.600;23.476;2023-02-19T06:26:58;9.01;55.70
67942;SHT31;54731;42.600;23.476;2023-02-19T06:29:24;9.08;55.67
67942;SHT31;54731;42.600;23.476;2023-02-19T06:31:49;9.14;54.99
67942;SHT31;54731;42.600;23.476;2023-02-19T06:34:14;9.14;55.38
67942;SHT31;54731;42.600;23.476;2023-02-19T06:36:39;9.10;55.60
67942;SHT31;54731;42.600;23.476;2023-02-19T06:39:05;9.13;55.39
67942;SHT31;54731;42.600;23.476;2023-02-19T06:41:31;9.18;55.13
67942;SHT31;54731;42.600;23.476;2023-02-19T06:43:57;9.17;55.24
67942;SHT31;54731;42.600;23.476;2023-02-19T06:46:22;9.11;55.46
67942;SHT31;54731;42.600;23.476;2023-02-19T06:48:48;9.04;55.81
67942;SHT31;54731;42.600;23.476;2023-02-19T06:51:15;9.04;55.81
67942;SHT31;54731;42.600;23.476;2023-02-19T06:53:41;9.04;56.13
67942;SHT31;54731;42.600;23.476;2023-02-19T06:56:21;9.11;55.68
67942;SHT31;54731;42.600;23.476;2023-02-19T06:58:47;9.06;55.90
67942;SHT31;54731;42.600;23.476;2023-02-19T07:01:12;9.07;55.85
67942;SHT31;54731;42.600;23.476;2023-02-19T07:03:37;9.06;55.65
67942;SHT31;54731;42.600;23.476;2023-02-19T07:06:03;9.07;56.16
67942;SHT31;54731;42.600;23.476;2023-02-19T07:08:28;9.13;55.55
67942;SHT31;54731;42.600;23.476;2023-02-19T07:10:55;9.16;55.71
67942;SHT31;54731;42.600;23.476;2023-02-19T07:13:22;9.13;55.84
67942;SHT31;54731;42.600;23.476;2023-02-19T07:15:47;9.13;55.87
67942;SHT31;54731;42.600;23.476;2023-02-19T07:18:13;9.11;56.00
67942;SHT31;54731;42.600;23.476;2023-02-19T07:20:38;9.21;55.63
67942;SHT31;54731;42.600;23.476;2023-02-19T07:23:03;9.17;55.67
67942;SHT31;54731;42.600;23.476;2023-02-19T07:25:28;9.17;55.74
67942;SHT31;54731;42.600;23.476;2023-02-19T07:27:54;9.23;55.33
67942;SHT31;54731;42.600;23.476;2023-02-19T07:30:19;9.27;55.35
67942;SHT31;54731;42.600;23.476;2023-02-19T07:32:44;9.32;55.15
67942;SHT31;54731;42.600;23.476;2023-02-19T07:35:10;9.37;54.98
67942;SHT31;54731;42.600;23.476;2023-02-19T07:37:35;9.30;55.41
67942;SHT31;54731;42.600;23.476;2023-02-19T07:40:01;9.37;55.09
67942;SHT31;54731;42.600;23.476;2023-02-19T07:42:26;9.42;55.15
67942;SHT31;54731;42.600;23.476;2023-02-19T07:44:52;9.42;55.17
67942;SHT31;54731;42.600;23.476;2023-02-19T07:47:17;9.54;54.89
67942;SHT31;54731;42.600;23.476;2023-02-19T07:49:42;9.55;55.18
67942;SHT31;54731;42.600;23.476;2023-02-19T07:52:08;9.61;54.62
67942;SHT31;54731;42.600;23.476;2023-02-19T07:54:33;9.62;54.55
67942;SHT31;54731;42.600;23.476;2023-02-19T07:56:58;9.71;55.01
67942;SHT31;54731;42.600;23.476;2023-02-19T07:59:23;9.79;54.77
67942;SHT31;54731;42.600;23.476;2023-02-19T08:01:49;9.82;54.94
67942;SHT31;54731;42.600;23.476;2023-02-19T08:04:14;9.85;55.10
67942;SHT31;54731;42.600;23.476;2023-02-19T08:06:40;9.88;55.12
67942;SHT31;54731;42.600;23.476;2023-02-19T08:09:06;9.93;54.74
67942;SHT31;54731;42.600;23.476;2023-02-19T08:11:31;9.98;54.91
67942;SHT31;54731;42.600;23.476;2023-02-19T08:13:56;9.99;54.16
67942;SHT31;54731;42.600;23.476;2023-02-19T08:16:22;10.08;54.49
67942;SHT31;54731;42.600;23.476;2023-02-19T08:18:47;10.09;53.88
67942;SHT31;54731;42.600;23.476;2023-02-19T08:21:13;10.08;53.77
67942;SHT31;54731;42.600;23.476;2023-02-19T08:23:38;10.06;53.75
67942;SHT31;54731;42.600;23.476;2023-02-19T08:26:05;10.08;54.14
67942;SHT31;54731;42.600;23.476;2023-02-19T08:28:30;10.22;53.96
67942;SHT31;54731;42.600;23.476;2023-02-19T08:31:00;10.20;53.81
67942;SHT31;54731;42.600;23.476;2023-02-19T08:33:26;10.26;54.48
67942;SHT31;54731;42.600;23.476;2023-02-19T08:35:52;10.28;54.63
67942;SHT31;54731;42.600;23.476;2023-02-19T08:38:17;10.36;54.41
67942;SHT31;54731;42.600;23.476;2023-02-19T08:40:42;10.37;53.58
67942;SHT31;54731;42.600;23.476;2023-02-19T08:43:13;10.36;54.47
67942;SHT31;54731;42.600;23.476;2023-02-19T08:45:41;10.43;54.19
67942;SHT31;54731;42.600;23.476;2023-02-19T08:48:07;10.46;53.68
67942;SHT31;54731;42.600;23.476;2023-02-19T08:50:34;10.39;53.91
67942;SHT31;54731;42.600;23.476;2023-02-19T08:53:00;10.39;53.88
67942;SHT31;54731;42.600;23.476;2023-02-19T08:55:26;10.47;54.23
67942;SHT31;54731;42.600;23.476;2023-02-19T08:57:51;10.54;53.36
67942;SHT31;54731;42.600;23.476;2023-02-19T09:00:17;10.59;53.02
67942;SHT31;54731;42.600;23.476;2023-02-19T09:02:42;10.70;52.36
67942;SHT31;54731;42.600;23.476;2023-02-19T09:05:10;10.74;52.25
67942;SHT31;54731;42.600;23.476;2023-02-19T09:07:35;10.77;52.42
67942;SHT31;54731;42.600;23.476;2023-02-19T09:10:00;10.83;52.08
67942;SHT31;54731;42.600;23.476;2023-02-19T09:12:26;10.87;52.92
67942;SHT31;54731;42.600;23.476;2023-02-19T09:14:51;10.85;52.30
67942;SHT31;54731;42.600;23.476;2023-02-19T09:17:17;10.93;53.27
67942;SHT31;54731;42.600;23.476;2023-02-19T09:19:42;11.01;51.56
67942;SHT31;54731;42.600;23.476;2023-02-19T09:22:08;11.03;51.48
67942;SHT31;54731;42.600;23.476;2023-02-19T09:24:43;11.08;52.18
67942;SHT31;54731;42.600;23.476;2023-02-19T09:27:17;11.19;51.85
67942;SHT31;54731;42.600;23.476;2023-02-19T09:29:42;11.22;51.54
67942;SHT31;54731;42.600;23.476;2023-02-19T09:32:08;11.25;52.04
67942;SHT31;54731;42.600;23.476;2023-02-19T09:34:33;11.29;51.44
67942;SHT31;54731;42.600;23.476;2023-02-19T09:36:58;11.32;51.10
67942;SHT31;54731;42.600;23.476;2023-02-19T09:39:23;11.34;50.97
67942;SHT31;54731;42.600;23.476;2023-02-19T09:42:00;11.39;51.32
67942;SHT31;54731;42.600;23.476;2023-02-19T09:44:30;11.51;50.31
67942;SHT31;54731;42.600;23.476;2023-02-19T09:46:59;11.54;50.85
67942;SHT31;54731;42.600;23.476;2023-02-19T09:49:36;11.59;50.22
67942;SHT31;54731;42.600;23.476;2023-02-19T09:52:43;11.63;51.39
67942;SHT31;54731;42.600;23.476;2023-02-19T09:55:15;11.69;50.62
67942;SHT31;54731;42.600;23.476;2023-02-19T09:57:41;11.83;50.50
67942;SHT31;54731;42.600;23.476;2023-02-19T10:00:17;11.96;50.06
67942;SHT31;54731;42.600;23.476;2023-02-19T10:02:43;12.13;50.01
67942;SHT31;54731;42.600;23.476;2023-02-19T10:05:12;12.20;49.27
67942;SHT31;54731;42.600;23.476;2023-02-19T10:07:47;12.29;49.24
67942;SHT31;54731;42.600;23.476;2023-02-19T10:12:40;12.45;48.84
67942;SHT31;54731;42.600;23.476;2023-02-19T10:15:33;12.53;49.15
67942;SHT31;54731;42.600;23.476;2023-02-19T10:18:02;12.60;48.32
67942;SHT31;54731;42.600;23.476;2023-02-19T10:20:28;12.77;48.78
67942;SHT31;54731;42.600;23.476;2023-02-19T10:23:07;12.80;47.93
67942;SHT31;54731;42.600;23.476;2023-02-19T10:25:34;12.98;48.71
67942;SHT31;54731;42.600;23.476;2023-02-19T10:28:00;13.04;47.23
67942;SHT31;54731;42.600;23.476;2023-02-19T10:30:31;13.06;47.67
67942;SHT31;54731;42.600;23.476;2023-02-19T10:33:17;13.12;47.90
67942;SHT31;54731;42.600;23.476;2023-02-19T10:38:26;13.28;47.67
67942;SHT31;54731;42.600;23.476;2023-02-19T10:41:13;13.36;48.05
67942;SHT31;54731;42.600;23.476;2023-02-19T10:43:42;13.53;47.34
67942;SHT31;54731;42.600;23.476;2023-02-19T10:46:17;13.56;47.29
67942;SHT31;54731;42.600;23.476;2023-02-19T10:48:49;13.60;47.22
67942;SHT31;54731;42.600;23.476;2023-02-19T10:51:17;13.71;46.31
67942;SHT31;54731;42.600;23.476;2023-02-19T10:53:45;13.73;46.34
67942;SHT31;54731;42.600;23.476;2023-02-19T10:56:23;13.81;46.80
67942;SHT31;54731;42.600;23.476;2023-02-19T10:58:49;13.86;45.52
67942;SHT31;54731;42.600;23.476;2023-02-19T11:01:24;13.93;46.78
67942;SHT31;54731;42.600;23.476;2023-02-19T11:03:51;14.00;46.54
67942;SHT31;54731;42.600;23.476;2023-02-19T11:06:19;14.14;45.63
67942;SHT31;54731;42.600;23.476;2023-02-19T11:08:51;14.11;45.78
67942;SHT31;54731;42.600;23.476;2023-02-19T11:11:37;14.25;44.74
67942;SHT31;54731;42.600;23.476;2023-02-19T11:14:14;14.37;44.88
67942;SHT31;54731;42.600;23.476;2023-02-19T11:16:44;14.51;44.83
67942;SHT31;54731;42.600;23.476;2023-02-19T11:21:54;14.79;44.23
67942;SHT31;54731;42.600;23.476;2023-02-19T11:24:28;14.65;43.04
67942;SHT31;54731;42.600;23.476;2023-02-19T11:26:55;14.72;43.15
67942;SHT31;54731;42.600;23.476;2023-02-19T11:29:22;14.92;44.19
67942;SHT31;54731;42.600;23.476;2023-02-19T11:31:48;15.09;43.96
67942;SHT31;54731;42.600;23.476;2023-02-19T11:36:40;15.35;43.09
67942;SHT31;54731;42.600;23.476;2023-02-19T11:41:56;15.32;41.52
67942;SHT31;54731;42.600;23.476;2023-02-19T12:00:54;16.66;39.79
67942;SHT31;54731;42.600;23.476;2023-02-19T12:42:14;20.09;33.26
67942;SHT31;54731;42.600;23.476;2023-02-19T12:44:54;20.54;34.23
67942;SHT31;54731;42.600;23.476;2023-02-19T12:47:31;21.01;33.34
67942;SHT31;54731;42.600;23.476;2023-02-19T12:50:24;21.28;32.92
67942;SHT31;54731;42.600;23.476;2023-02-19T12:52:58;21.52;30.58
67942;SHT31;54731;42.600;23.476;2023-02-19T12:55:29;21.24;30.63
67942;SHT31;54731;42.600;23.476;2023-02-19T12:57:57;21.21;30.43
67942;SHT31;54731;42.600;23.476;2023-02-19T13:00:43;20.73;30.84
67942;SHT31;54731;42.600;23.476;2023-02-19T13:05:56;21.39;31.15
67942;SHT31;54731;42.600;23.476;2023-02-19T13:11:26;20.60;31.24
67942;SHT31;54731;42.600;23.476;2023-02-19T13:13:56;20.83;31.07
67942;SHT31;54731;42.600;23.476;2023-02-19T13:16:22;20.94;31.69
67942;SHT31;54731;42.600;23.476;2023-02-19T13:18:52;21.47;30.65
67942;SHT31;54731;42.600;23.476;2023-02-19T13:21:20;21.62;30.66
67942;SHT31;54731;42.600;23.476;2023-02-19T13:23:46;21.81;31.46
67942;SHT31;54731;42.600;23.476;2023-02-19T13:35:21;22.28;29.22
67942;SHT31;54731;42.600;23.476;2023-02-19T13:37:48;22.14;29.59
67942;SHT31;54731;42.600;23.476;2023-02-19T13:42:54;22.54;30.57
67942;SHT31;54731;42.600;23.476;2023-02-19T13:50:24;21.89;30.64
67942;SHT31;54731;42.600;23.476;2023-02-19T13:52:53;21.72;31.83
67942;SHT31;54731;42.600;23.476;2023-02-19T14:00:58;21.99;31.46
67942;SHT31;54731;42.600;23.476;2023-02-19T14:03:38;22.16;32.24
67942;SHT31;54731;42.600;23.476;2023-02-19T14:06:08;22.00;31.76
67942;SHT31;54731;42.600;23.476;2023-02-19T14:09:37;21.71;32.06
67942;SHT31;54731;42.600;23.476;2023-02-19T14:19:44;20.40;33.01
67942;SHT31;54731;42.600;23.476;2023-02-19T14:27:48;19.92;34.32
67942;SHT31;54731;42.600;23.476;2023-02-19T14:30:14;19.81;34.85
67942;SHT31;54731;42.600;23.476;2023-02-19T14:32:40;19.69;35.29
67942;SHT31;54731;42.600;23.476;2023-02-19T14:35:06;19.78;34.62
67942;SHT31;54731;42.600;23.476;2023-02-19T14:37:44;19.67;34.45
67942;SHT31;54731;42.600;23.476;2023-02-19T14:40:17;19.21;34.68
67942;SHT31;54731;42.600;23.476;2023-02-19T14:42:43;19.18;35.45
67942;SHT31;54731;42.600;23.476;2023-02-19T14:45:08;19.16;35.33
67942;SHT31;54731;42.600;23.476;2023-02-19T14:47:35;18.97;35.77
67942;SHT31;54731;42.600;23.476;2023-02-19T14:50:30;19.06;35.73
67942;SHT31;54731;42.600;23.476;2023-02-19T14:53:00;19.28;35.65
67942;SHT31;54731;42.600;23.476;2023-02-19T14:55:31;19.18;35.56
67942;SHT31;54731;42.600;23.476;2023-02-19T14:57:59;18.84;35.88
67942;SHT31;54731;42.600;23.476;2023-02-19T15:00:39;18.99;35.62
67942;SHT31;54731;42.600;23.476;2023-02-19T15:03:05;18.89;36.05
67942;SHT31;54731;42.600;23.476;2023-02-19T15:05:35;18.94;36.22
67942;SHT31;54731;42.600;23.476;2023-02-19T15:08:05;18.74;35.79
67942;SHT31;54731;42.600;23.476;2023-02-19T15:10:32;18.51;36.39
67942;SHT31;54731;42.600;23.476;2023-02-19T15:13:09;17.82;37.29
67942;SHT31;54731;42.600;23.476;2023-02-19T15:15:37;17.71;37.69
67942;SHT31;54731;42.600;23.476;2023-02-19T15:18:04;17.61;38.34
67942;SHT31;54731;42.600;23.476;2023-02-19T15:20:32;17.58;37.84
67942;SHT31;54731;42.600;23.476;2023-02-19T15:22:58;17.54;38.06
67942;SHT31;54731;42.600;23.476;2023-02-19T15:25:29;17.37;38.25
67942;SHT31;54731;42.600;23.476;2023-02-19T15:30:45;16.80;38.73
67942;SHT31;54731;42.600;23.476;2023-02-19T15:33:16;16.79;39.28
67942;SHT31;54731;42.600;23.476;2023-02-19T15:35:47;16.65;39.91
67942;SHT31;54731;42.600;23.476;2023-02-19T15:38:13;16.47;39.80
67942;SHT31;54731;42.600;23.476;2023-02-19T15:40:43;16.14;40.72
67942;SHT31;54731;42.600;23.476;2023-02-19T15:43:21;15.98;40.27
67942;SHT31;54731;42.600;23.476;2023-02-19T15:45:49;15.84;40.67
67942;SHT31;54731;42.600;23.476;2023-02-19T15:48:19;15.66;41.77
67942;SHT31;54731;42.600;23.476;2023-02-19T15:50:51;15.32;42.37
67942;SHT31;54731;42.600;23.476;2023-02-19T15:53:23;15.27;42.12
67942;SHT31;54731;42.600;23.476;2023-02-19T16:03:39;14.75;41.73
67942;SHT31;54731;42.600;23.476;2023-02-19T16:06:08;14.84;41.64
67942;SHT31;54731;42.600;23.476;2023-02-19T16:08:36;14.68;42.61
67942;SHT31;54731;42.600;23.476;2023-02-19T16:11:24;14.51;43.58
67942;SHT31;54731;42.600;23.476;2023-02-19T16:13:50;14.30;44.42
67942;SHT31;54731;42.600;23.476;2023-02-19T16:16:37;14.14;44.81
67942;SHT31;54731;42.600;23.476;2023-02-19T16:19:03;14.03;45.09
67942;SHT31;54731;42.600;23.476;2023-02-19T16:21:29;13.96;45.32
67942;SHT31;54731;42.600;23.476;2023-02-19T16:24:05;13.90;44.65
67942;SHT31;54731;42.600;23.476;2023-02-19T16:26:40;13.91;45.14
67942;SHT31;54731;42.600;23.476;2023-02-19T16:29:25;13.69;45.99
67942;SHT31;54731;42.600;23.476;2023-02-19T16:31:56;13.63;45.55
67942;SHT31;54731;42.600;23.476;2023-02-19T16:34:48;13.56;46.11
67942;SHT31;54731;42.600;23.476;2023-02-19T16:45:45;13.26;46.74
67942;SHT31;54731;42.600;23.476;2023-02-19T16:48:12;13.43;44.59
67942;SHT31;54731;42.600;23.476;2023-02-19T16:50:38;13.45;45.38
67942;SHT31;54731;42.600;23.476;2023-02-19T16:53:04;13.40;45.28
67942;SHT31;54731;42.600;23.476;2023-02-19T16:55:30;13.43;45.28
67942;SHT31;54731;42.600;23.476;2023-02-19T16:57:55;13.39;45.74
67942;SHT31;54731;42.600;23.476;2023-02-19T17:00:22;13.29;47.54
67942;SHT31;54731;42.600;23.476;2023-02-19T17:02:50;13.26;45.98
67942;SHT31;54731;42.600;23.476;2023-02-19T17:05:16;13.35;45.15
67942;SHT31;54731;42.600;23.476;2023-02-19T17:07:42;13.32;45.69
67942;SHT31;54731;42.600;23.476;2023-02-19T17:10:15;13.29;45.39
67942;SHT31;54731;42.600;23.476;2023-02-19T17:12:40;13.28;45.25
67942;SHT31;54731;42.600;23.476;2023-02-19T17:15:06;13.22;45.72
67942;SHT31;54731;42.600;23.476;2023-02-19T17:17:32;13.22;45.00
67942;SHT31;54731;42.600;23.476;2023-02-19T17:19:57;13.19;45.57
67942;SHT31;54731;42.600;23.476;2023-02-19T17:22:22;13.11;45.37
67942;SHT31;54731;42.600;23.476;2023-02-19T17:24:48;13.05;45.47
67942;SHT31;54731;42.600;23.476;2023-02-19T17:27:13;13.01;45.70
67942;SHT31;54731;42.600;23.476;2023-02-19T17:29:39;12.94;45.86
67942;SHT31;54731;42.600;23.476;2023-02-19T17:32:04;12.94;45.74
67942;SHT31;54731;42.600;23.476;2023-02-19T17:34:30;12.92;45.64
67942;SHT31;54731;42.600;23.476;2023-02-19T17:36:55;12.87;45.59
67942;SHT31;54731;42.600;23.476;2023-02-19T17:39:21;12.88;45.70
67942;SHT31;54731;42.600;23.476;2023-02-19T17:41:46;12.80;45.97
67942;SHT31;54731;42.600;23.476;2023-02-19T17:44:12;12.73;45.78
67942;SHT31;54731;42.600;23.476;2023-02-19T17:46:37;12.71;45.93
67942;SHT31;54731;42.600;23.476;2023-02-19T17:49:02;12.68;45.86
67942;SHT31;54731;42.600;23.476;2023-02-19T17:51:28;12.68;46.05
67942;SHT31;54731;42.600;23.476;2023-02-19T17:53:53;12.63;45.80
67942;SHT31;54731;42.600;23.476;2023-02-19T17:56:21;12.50;48.23
67942;SHT31;54731;42.600;23.476;2023-02-19T17:58:47;12.38;48.81
67942;SHT31;54731;42.600;23.476;2023-02-19T18:01:12;12.37;47.38
67942;SHT31;54731;42.600;23.476;2023-02-19T18:03:38;12.40;46.80
67942;SHT31;54731;42.600;23.476;2023-02-19T18:06:04;12.36;47.11